sensor_id;sensor_type;location;lat;lon;timestamp;P1;durP1;ratioP1;P2;durP2;ratioP2
76837;SDS011;65797;47.352;8.164;2023-03-23T00:02:19;4.33;;;2.70;;
76837;SDS011;65797;47.352;8.164;2023-03-23T00:04:51;2.93;;;2.73;;
76837;SDS011;65797;47.352;8.164;2023-03-23T00:07:18;7.60;;;2.63;;
76837;SDS011;65797;47.352;8.164;2023-03-23T00:09:48;2.87;;;2.67;;
76837;SDS011;65797;47.352;8.164;2023-03-23T00:12:27;3.77;;;2.40;;
76837;SDS011;65797;47.352;8.164;2023-03-23T00:14:58;4.80;;;3.00;;
76837;SDS011;65797;47.352;8.164;2023-03-23T00:17:33;7.47;;;4.43;;
76837;SDS011;65797;47.352;8.164;2023-03-23T00:20:00;6.90;;;3.63;;
76837;SDS011;65797;47.352;8.164;2023-03-23T00:22:29;5.83;;;3.40;;
76837;SDS011;65797;47.352;8.164;2023-03-23T00:24:54;3.57;;;2.97;;
76837;SDS011;65797;47.352;8.164;2023-03-23T00:27:21;3.70;;;3.23;;
76837;SDS011;65797;47.352;8.164;2023-03-23T00:29:51;3.17;;;2.47;;
76837;SDS011;65797;47.352;8.164;2023-03-23T00:32:18;5.53;;;3.37;;
76837;SDS011;65797;47.352;8.164;2023-03-23T00:34:52;3.90;;;2.77;;
76837;SDS011;65797;47.352;8.164;2023-03-23T00:37:18;7.07;;;3.90;;
76837;SDS011;65797;47.352;8.164;2023-03-23T00:39:44;4.63;;;2.60;;
76837;SDS011;65797;47.352;8.164;2023-03-23T00:42:12;3.73;;;3.00;;
76837;SDS011;65797;47.352;8.164;2023-03-23T00:44:39;3.80;;;2.53;;
76837;SDS011;65797;47.352;8.164;2023-03-23T00:47:05;3.23;;;2.67;;
76837;SDS011;65797;47.352;8.164;2023-03-23T00:49:33;3.57;;;2.60;;
76837;SDS011;65797;47.352;8.164;2023-03-23T00:52:01;2.60;;;2.40;;
76837;SDS011;65797;47.352;8.164;2023-03-23T00:54:29;2.73;;;2.50;;
76837;SDS011;65797;47.352;8.164;2023-03-23T00:56:55;2.57;;;2.37;;
76837;SDS011;65797;47.352;8.164;2023-03-23T00:59:21;3.97;;;2.67;;
76837;SDS011;65797;47.352;8.164;2023-03-23T01:01:48;3.83;;;2.47;;
76837;SDS011;65797;47.352;8.164;2023-03-23T01:04:14;3.93;;;3.00;;
76837;SDS011;65797;47.352;8.164;2023-03-23T01:06:41;2.50;;;2.30;;
76837;SDS011;65797;47.352;8.164;2023-03-23T01:09:12;4.10;;;2.50;;
76837;SDS011;65797;47.352;8.164;2023-03-23T01:11:45;4.33;;;2.70;;
76837;SDS011;65797;47.352;8.164;2023-03-23T01:14:14;3.43;;;2.60;;
76837;SDS011;65797;47.352;8.164;2023-03-23T01:16:42;2.80;;;2.50;;
76837;SDS011;65797;47.352;8.164;2023-03-23T01:19:07;5.43;;;2.70;;
76837;SDS011;65797;47.352;8.164;2023-03-23T01:21:33;2.63;;;2.43;;
76837;SDS011;65797;47.352;8.164;2023-03-23T01:23:59;3.93;;;2.53;;
76837;SDS011;65797;47.352;8.164;2023-03-23T01:26:26;5.73;;;3.00;;
76837;SDS011;65797;47.352;8.164;2023-03-23T01:28:52;3.00;;;2.73;;
76837;SDS011;65797;47.352;8.164;2023-03-23T01:31:19;5.63;;;2.90;;
76837;SDS011;65797;47.352;8.164;2023-03-23T01:33:47;2.90;;;2.60;;
76837;SDS011;65797;47.352;8.164;2023-03-23T01:36:17;4.00;;;2.60;;
76837;SDS011;65797;47.352;8.164;2023-03-23T01:38:44;8.90;;;2.93;;
76837;SDS011;65797;47.352;8.164;2023-03-23T01:41:13;3.63;;;2.77;;
76837;SDS011;65797;47.352;8.164;2023-03-23T01:46:33;3.10;;;2.83;;
76837;SDS011;65797;47.352;8.164;2023-03-23T01:49:07;4.20;;;2.57;;
76837;SDS011;65797;47.352;8.164;2023-03-23T01:51:40;3.87;;;3.10;;
76837;SDS011;65797;47.352;8.164;2023-03-23T01:54:13;2.83;;;2.60;;
76837;SDS011;65797;47.352;8.164;2023-03-23T01:56:52;2.90;;;2.67;;
76837;SDS011;65797;47.352;8.164;2023-03-23T01:59:21;3.73;;;2.90;;
76837;SDS011;65797;47.352;8.164;2023-03-23T02:01:50;4.40;;;2.70;;
76837;SDS011;65797;47.352;8.164;2023-03-23T02:04:18;6.93;;;3.47;;
76837;SDS011;65797;47.352;8.164;2023-03-23T02:06:46;6.27;;;3.17;;
76837;SDS011;65797;47.352;8.164;2023-03-23T02:09:12;6.20;;;2.60;;
76837;SDS011;65797;47.352;8.164;2023-03-23T02:11:45;4.30;;;3.00;;
76837;SDS011;65797;47.352;8.164;2023-03-23T02:14:12;4.83;;;2.50;;
76837;SDS011;65797;47.352;8.164;2023-03-23T02:25:05;4.37;;;2.90;;
76837;SDS011;65797;47.352;8.164;2023-03-23T02:33:11;3.47;;;3.17;;
76837;SDS011;65797;47.352;8.164;2023-03-23T02:36:10;5.90;;;2.87;;
76837;SDS011;65797;47.352;8.164;2023-03-23T02:38:44;9.60;;;3.10;;
76837;SDS011;65797;47.352;8.164;2023-03-23T02:41:36;4.97;;;3.20;;
76837;SDS011;65797;47.352;8.164;2023-03-23T02:44:07;8.30;;;3.03;;
76837;SDS011;65797;47.352;8.164;2023-03-23T02:46:35;5.70;;;2.83;;
76837;SDS011;65797;47.352;8.164;2023-03-23T02:49:02;4.33;;;3.07;;
76837;SDS011;65797;47.352;8.164;2023-03-23T02:51:30;3.27;;;2.97;;
76837;SDS011;65797;47.352;8.164;2023-03-23T02:53:59;3.70;;;2.67;;
76837;SDS011;65797;47.352;8.164;2023-03-23T02:56:27;6.70;;;2.90;;
76837;SDS011;65797;47.352;8.164;2023-03-23T02:58:55;3.33;;;3.03;;
76837;SDS011;65797;47.352;8.164;2023-03-23T03:04:10;4.90;;;2.27;;
76837;SDS011;65797;47.352;8.164;2023-03-23T03:09:27;3.27;;;2.97;;
76837;SDS011;65797;47.352;8.164;2023-03-23T03:12:02;3.83;;;2.40;;
76837;SDS011;65797;47.352;8.164;2023-03-23T03:14:44;2.90;;;2.60;;
76837;SDS011;65797;47.352;8.164;2023-03-23T03:17:36;3.13;;;2.83;;
76837;SDS011;65797;47.352;8.164;2023-03-23T03:20:08;3.37;;;2.67;;
76837;SDS011;65797;47.352;8.164;2023-03-23T03:22:36;3.90;;;2.27;;
76837;SDS011;65797;47.352;8.164;2023-03-23T03:25:07;2.67;;;2.50;;
76837;SDS011;65797;47.352;8.164;2023-03-23T03:27:34;4.70;;;2.87;;
76837;SDS011;65797;47.352;8.164;2023-03-23T03:30:00;3.57;;;2.67;;
76837;SDS011;65797;47.352;8.164;2023-03-23T03:32:48;3.30;;;2.73;;
76837;SDS011;65797;47.352;8.164;2023-03-23T03:35:18;4.73;;;3.40;;
76837;SDS011;65797;47.352;8.164;2023-03-23T03:37:47;5.37;;;2.60;;
76837;SDS011;65797;47.352;8.164;2023-03-23T03:40:15;4.43;;;2.80;;
76837;SDS011;65797;47.352;8.164;2023-03-23T03:42:42;3.33;;;3.03;;
76837;SDS011;65797;47.352;8.164;2023-03-23T03:45:10;3.43;;;3.10;;
76837;SDS011;65797;47.352;8.164;2023-03-23T03:47:41;2.50;;;2.30;;
76837;SDS011;65797;47.352;8.164;2023-03-23T03:50:07;4.67;;;2.87;;
76837;SDS011;65797;47.352;8.164;2023-03-23T03:52:33;4.87;;;2.77;;
76837;SDS011;65797;47.352;8.164;2023-03-23T03:55:00;3.87;;;2.60;;
76837;SDS011;65797;47.352;8.164;2023-03-23T03:57:25;3.37;;;2.70;;
76837;SDS011;65797;47.352;8.164;2023-03-23T03:59:54;3.60;;;2.97;;
76837;SDS011;65797;47.352;8.164;2023-03-23T04:02:21;4.07;;;3.10;;
76837;SDS011;65797;47.352;8.164;2023-03-23T04:04:47;6.87;;;2.70;;
76837;SDS011;65797;47.352;8.164;2023-03-23T04:07:13;3.00;;;2.63;;
76837;SDS011;65797;47.352;8.164;2023-03-23T04:09:41;3.23;;;2.90;;
76837;SDS011;65797;47.352;8.164;2023-03-23T04:12:13;4.97;;;2.60;;
76837;SDS011;65797;47.352;8.164;2023-03-23T04:14:39;3.50;;;2.97;;
76837;SDS011;65797;47.352;8.164;2023-03-23T04:17:05;3.00;;;2.70;;
76837;SDS011;65797;47.352;8.164;2023-03-23T04:19:34;3.40;;;2.70;;
76837;SDS011;65797;47.352;8.164;2023-03-23T04:22:01;4.83;;;2.47;;
76837;SDS011;65797;47.352;8.164;2023-03-23T04:24:28;2.50;;;2.30;;
76837;SDS011;65797;47.352;8.164;2023-03-23T04:26:56;2.80;;;2.50;;
76837;SDS011;65797;47.352;8.164;2023-03-23T04:29:21;3.60;;;2.70;;
76837;SDS011;65797;47.352;8.164;2023-03-23T04:31:47;4.07;;;3.03;;
76837;SDS011;65797;47.352;8.164;2023-03-23T04:34:15;4.37;;;3.33;;
76837;SDS011;65797;47.352;8.164;2023-03-23T04:36:43;3.20;;;2.70;;
76837;SDS011;65797;47.352;8.164;2023-03-23T04:39:09;3.10;;;2.87;;
76837;SDS011;65797;47.352;8.164;2023-03-23T04:41:38;9.80;;;2.70;;
76837;SDS011;65797;47.352;8.164;2023-03-23T04:44:05;7.63;;;2.73;;
76837;SDS011;65797;47.352;8.164;2023-03-23T04:46:32;5.23;;;2.90;;
76837;SDS011;65797;47.352;8.164;2023-03-23T04:48:58;3.83;;;2.50;;
76837;SDS011;65797;47.352;8.164;2023-03-23T04:51:30;3.90;;;2.77;;
76837;SDS011;65797;47.352;8.164;2023-03-23T04:53:56;2.87;;;2.37;;
76837;SDS011;65797;47.352;8.164;2023-03-23T04:56:22;3.77;;;1.70;;
76837;SDS011;65797;47.352;8.164;2023-03-23T04:58:47;3.97;;;2.20;;
76837;SDS011;65797;47.352;8.164;2023-03-23T05:01:13;2.20;;;1.97;;
76837;SDS011;65797;47.352;8.164;2023-03-23T05:03:39;2.40;;;2.20;;
76837;SDS011;65797;47.352;8.164;2023-03-23T05:06:06;3.67;;;2.23;;
76837;SDS011;65797;47.352;8.164;2023-03-23T05:08:32;5.77;;;2.20;;
76837;SDS011;65797;47.352;8.164;2023-03-23T05:10:58;2.40;;;2.13;;
76837;SDS011;65797;47.352;8.164;2023-03-23T05:13:26;6.30;;;2.53;;
76837;SDS011;65797;47.352;8.164;2023-03-23T05:15:53;1.93;;;1.80;;
76837;SDS011;65797;47.352;8.164;2023-03-23T05:18:20;2.70;;;1.80;;
76837;SDS011;65797;47.352;8.164;2023-03-23T05:20:46;2.40;;;2.00;;
76837;SDS011;65797;47.352;8.164;2023-03-23T05:23:12;3.30;;;2.30;;
76837;SDS011;65797;47.352;8.164;2023-03-23T05:25:38;3.17;;;2.30;;
76837;SDS011;65797;47.352;8.164;2023-03-23T05:28:07;2.93;;;2.10;;
76837;SDS011;65797;47.352;8.164;2023-03-23T05:30:35;2.50;;;2.30;;
76837;SDS011;65797;47.352;8.164;2023-03-23T05:33:02;2.90;;;2.60;;
76837;SDS011;65797;47.352;8.164;2023-03-23T05:35:28;2.80;;;2.60;;
76837;SDS011;65797;47.352;8.164;2023-03-23T05:37:55;6.47;;;2.43;;
76837;SDS011;65797;47.352;8.164;2023-03-23T05:40:22;4.47;;;2.30;;
76837;SDS011;65797;47.352;8.164;2023-03-23T05:42:50;3.00;;;2.03;;
76837;SDS011;65797;47.352;8.164;2023-03-23T05:45:17;4.30;;;2.30;;
76837;SDS011;65797;47.352;8.164;2023-03-23T05:47:43;2.73;;;1.87;;
76837;SDS011;65797;47.352;8.164;2023-03-23T05:50:09;2.93;;;2.60;;
76837;SDS011;65797;47.352;8.164;2023-03-23T05:52:36;3.50;;;2.60;;
76837;SDS011;65797;47.352;8.164;2023-03-23T06:00:12;3.47;;;2.00;;
76837;SDS011;65797;47.352;8.164;2023-03-23T06:02:39;1.83;;;1.60;;
76837;SDS011;65797;47.352;8.164;2023-03-23T06:05:08;2.27;;;1.60;;
76837;SDS011;65797;47.352;8.164;2023-03-23T06:07:35;2.03;;;1.83;;
76837;SDS011;65797;47.352;8.164;2023-03-23T06:10:02;2.10;;;1.90;;
76837;SDS011;65797;47.352;8.164;2023-03-23T06:12:29;2.20;;;1.80;;
76837;SDS011;65797;47.352;8.164;2023-03-23T06:14:56;3.00;;;1.53;;
76837;SDS011;65797;47.352;8.164;2023-03-23T06:17:22;4.00;;;1.93;;
76837;SDS011;65797;47.352;8.164;2023-03-23T06:19:48;1.50;;;1.40;;
76837;SDS011;65797;47.352;8.164;2023-03-23T06:22:15;2.80;;;1.60;;
76837;SDS011;65797;47.352;8.164;2023-03-23T06:24:42;1.80;;;1.70;;
76837;SDS011;65797;47.352;8.164;2023-03-23T06:27:09;1.80;;;1.70;;
76837;SDS011;65797;47.352;8.164;2023-03-23T06:29:35;2.30;;;1.70;;
76837;SDS011;65797;47.352;8.164;2023-03-23T06:32:02;1.63;;;1.53;;
76837;SDS011;65797;47.352;8.164;2023-03-23T06:34:29;3.77;;;1.93;;
76837;SDS011;65797;47.352;8.164;2023-03-23T06:36:55;1.50;;;1.40;;
76837;SDS011;65797;47.352;8.164;2023-03-23T06:39:22;1.67;;;1.40;;
76837;SDS011;65797;47.352;8.164;2023-03-23T06:41:48;1.67;;;1.50;;
76837;SDS011;65797;47.352;8.164;2023-03-23T06:44:14;1.73;;;1.63;;
76837;SDS011;65797;47.352;8.164;2023-03-23T06:46:40;2.63;;;1.30;;
76837;SDS011;65797;47.352;8.164;2023-03-23T06:49:07;3.57;;;2.13;;
76837;SDS011;65797;47.352;8.164;2023-03-23T06:51:33;4.23;;;2.00;;
76837;SDS011;65797;47.352;8.164;2023-03-23T06:53:59;5.50;;;2.50;;
76837;SDS011;65797;47.352;8.164;2023-03-23T06:56:25;5.77;;;3.03;;
76837;SDS011;65797;47.352;8.164;2023-03-23T06:58:51;6.17;;;3.93;;
76837;SDS011;65797;47.352;8.164;2023-03-23T07:01:17;3.93;;;2.80;;
76837;SDS011;65797;47.352;8.164;2023-03-23T07:03:43;3.97;;;2.90;;
76837;SDS011;65797;47.352;8.164;2023-03-23T07:06:09;5.60;;;2.80;;
76837;SDS011;65797;47.352;8.164;2023-03-23T07:08:35;5.23;;;2.90;;
76837;SDS011;65797;47.352;8.164;2023-03-23T07:11:01;3.93;;;2.80;;
76837;SDS011;65797;47.352;8.164;2023-03-23T07:13:28;5.40;;;2.80;;
76837;SDS011;65797;47.352;8.164;2023-03-23T07:15:54;7.60;;;2.70;;
76837;SDS011;65797;47.352;8.164;2023-03-23T07:18:20;12.73;;;3.00;;
76837;SDS011;65797;47.352;8.164;2023-03-23T07:20:49;4.50;;;3.07;;
76837;SDS011;65797;47.352;8.164;2023-03-23T07:23:16;3.80;;;2.40;;
76837;SDS011;65797;47.352;8.164;2023-03-23T07:25:42;3.30;;;2.70;;
76837;SDS011;65797;47.352;8.164;2023-03-23T07:28:08;4.47;;;2.53;;
76837;SDS011;65797;47.352;8.164;2023-03-23T07:30:34;4.10;;;2.80;;
76837;SDS011;65797;47.352;8.164;2023-03-23T07:33:03;4.03;;;2.30;;
76837;SDS011;65797;47.352;8.164;2023-03-23T07:35:33;4.47;;;2.40;;
76837;SDS011;65797;47.352;8.164;2023-03-23T07:38:00;3.60;;;2.20;;
76837;SDS011;65797;47.352;8.164;2023-03-23T07:40:26;2.77;;;2.57;;
76837;SDS011;65797;47.352;8.164;2023-03-23T07:42:54;7.00;;;3.00;;
76837;SDS011;65797;47.352;8.164;2023-03-23T07:45:21;9.47;;;2.53;;
76837;SDS011;65797;47.352;8.164;2023-03-23T07:47:47;2.83;;;2.63;;
76837;SDS011;65797;47.352;8.164;2023-03-23T07:50:13;3.70;;;2.47;;
76837;SDS011;65797;47.352;8.164;2023-03-23T07:52:39;4.83;;;2.97;;
76837;SDS011;65797;47.352;8.164;2023-03-23T07:55:07;6.57;;;2.60;;
76837;SDS011;65797;47.352;8.164;2023-03-23T07:57:36;3.40;;;2.60;;
76837;SDS011;65797;47.352;8.164;2023-03-23T08:00:03;3.00;;;2.63;;
76837;SDS011;65797;47.352;8.164;2023-03-23T08:02:36;3.70;;;2.17;;
76837;SDS011;65797;47.352;8.164;2023-03-23T08:05:02;3.00;;;2.07;;
76837;SDS011;65797;47.352;8.164;2023-03-23T08:07:28;5.63;;;2.77;;
76837;SDS011;65797;47.352;8.164;2023-03-23T08:09:56;3.67;;;2.50;;
76837;SDS011;65797;47.352;8.164;2023-03-23T08:12:22;5.57;;;2.57;;
76837;SDS011;65797;47.352;8.164;2023-03-23T08:14:47;4.87;;;2.73;;
76837;SDS011;65797;47.352;8.164;2023-03-23T08:17:13;3.30;;;2.37;;
76837;SDS011;65797;47.352;8.164;2023-03-23T08:19:39;5.67;;;2.47;;
76837;SDS011;65797;47.352;8.164;2023-03-23T08:22:05;1.93;;;1.80;;
76837;SDS011;65797;47.352;8.164;2023-03-23T08:24:31;3.10;;;1.97;;
76837;SDS011;65797;47.352;8.164;2023-03-23T08:27:00;7.90;;;2.30;;
76837;SDS011;65797;47.352;8.164;2023-03-23T08:29:26;2.43;;;2.07;;
76837;SDS011;65797;47.352;8.164;2023-03-23T08:31:52;10.60;;;2.60;;
76837;SDS011;65797;47.352;8.164;2023-03-23T08:34:18;6.30;;;3.13;;
76837;SDS011;65797;47.352;8.164;2023-03-23T08:36:44;3.73;;;2.70;;
76837;SDS011;65797;47.352;8.164;2023-03-23T10:50:55;1.50;;;1.40;;
76837;SDS011;65797;47.352;8.164;2023-03-23T10:56:21;2.27;;;1.70;;
76837;SDS011;65797;47.352;8.164;2023-03-23T10:58:59;2.57;;;1.23;;
76837;SDS011;65797;47.352;8.164;2023-03-23T11:01:37;3.63;;;1.60;;
76837;SDS011;65797;47.352;8.164;2023-03-23T11:04:12;2.70;;;1.60;;
76837;SDS011;65797;47.352;8.164;2023-03-23T11:06:47;2.40;;;1.47;;
76837;SDS011;65797;47.352;8.164;2023-03-23T11:27:26;3.00;;;1.53;;
76837;SDS011;65797;47.352;8.164;2023-03-23T11:29:54;4.37;;;1.87;;
76837;SDS011;65797;47.352;8.164;2023-03-23T11:32:24;2.73;;;1.60;;
76837;SDS011;65797;47.352;8.164;2023-03-23T12:58:42;2.50;;;1.80;;
76837;SDS011;65797;47.352;8.164;2023-03-23T13:01:12;1.67;;;1.50;;
76837;SDS011;65797;47.352;8.164;2023-03-23T13:11:52;3.90;;;1.73;;
76837;SDS011;65797;47.352;8.164;2023-03-23T13:23:11;1.60;;;1.50;;
76837;SDS011;65797;47.352;8.164;2023-03-23T13:36:43;1.73;;;1.40;;
76837;SDS011;65797;47.352;8.164;2023-03-23T13:39:25;1.67;;;1.47;;
76837;SDS011;65797;47.352;8.164;2023-03-23T13:44:54;1.60;;;1.50;;
76837;SDS011;65797;47.352;8.164;2023-03-23T13:47:35;1.87;;;1.77;;
76837;SDS011;65797;47.352;8.164;2023-03-23T13:57:54;1.63;;;1.37;;
76837;SDS011;65797;47.352;8.164;2023-03-23T14:05:38;2.07;;;1.50;;
76837;SDS011;65797;47.352;8.164;2023-03-23T14:08:36;1.57;;;1.27;;
76837;SDS011;65797;47.352;8.164;2023-03-23T14:11:12;1.53;;;1.43;;
76837;SDS011;65797;47.352;8.164;2023-03-23T14:16:36;1.87;;;1.73;;
76837;SDS011;65797;47.352;8.164;2023-03-23T14:19:14;1.70;;;1.60;;
76837;SDS011;65797;47.352;8.164;2023-03-23T14:21:52;5.97;;;1.60;;
76837;SDS011;65797;47.352;8.164;2023-03-23T14:24:30;3.40;;;1.80;;
76837;SDS011;65797;47.352;8.164;2023-03-23T14:29:34;10.07;;;4.77;;
76837;SDS011;65797;47.352;8.164;2023-03-23T14:32:00;4.93;;;3.60;;
76837;SDS011;65797;47.352;8.164;2023-03-23T14:34:31;2.50;;;2.27;;
76837;SDS011;65797;47.352;8.164;2023-03-23T14:36:58;7.23;;;4.47;;
76837;SDS011;65797;47.352;8.164;2023-03-23T14:39:25;6.50;;;2.40;;
76837;SDS011;65797;47.352;8.164;2023-03-23T14:42:03;4.20;;;2.00;;
76837;SDS011;65797;47.352;8.164;2023-03-23T14:44:42;3.03;;;2.10;;
76837;SDS011;65797;47.352;8.164;2023-03-23T14:47:18;2.27;;;1.67;;
76837;SDS011;65797;47.352;8.164;2023-03-23T14:49:47;2.40;;;2.20;;
76837;SDS011;65797;47.352;8.164;2023-03-23T14:52:21;3.93;;;2.20;;
76837;SDS011;65797;47.352;8.164;2023-03-23T14:54:49;2.27;;;1.53;;
76837;SDS011;65797;47.352;8.164;2023-03-23T14:59:50;2.77;;;1.77;;
76837;SDS011;65797;47.352;8.164;2023-03-23T15:02:17;2.40;;;1.80;;
76837;SDS011;65797;47.352;8.164;2023-03-23T15:04:52;3.50;;;2.00;;
76837;SDS011;65797;47.352;8.164;2023-03-23T15:07:30;3.20;;;1.70;;
76837;SDS011;65797;47.352;8.164;2023-03-23T15:10:05;1.50;;;1.40;;
76837;SDS011;65797;47.352;8.164;2023-03-23T15:12:32;1.73;;;1.63;;
76837;SDS011;65797;47.352;8.164;2023-03-23T15:15:01;2.03;;;1.80;;
76837;SDS011;65797;47.352;8.164;2023-03-23T15:17:38;1.80;;;1.40;;
76837;SDS011;65797;47.352;8.164;2023-03-23T15:23:12;1.60;;;1.50;;
76837;SDS011;65797;47.352;8.164;2023-03-23T15:25:47;1.50;;;1.40;;
76837;SDS011;65797;47.352;8.164;2023-03-23T15:28:19;1.50;;;1.40;;
76837;SDS011;65797;47.352;8.164;2023-03-23T15:30:57;2.10;;;1.70;;
76837;SDS011;65797;47.352;8.164;2023-03-23T15:33:33;6.33;;;1.83;;
76837;SDS011;65797;47.352;8.164;2023-03-23T15:36:05;1.67;;;1.57;;
76837;SDS011;65797;47.352;8.164;2023-03-23T15:38:42;2.03;;;1.43;;
76837;SDS011;65797;47.352;8.164;2023-03-23T15:44:12;5.73;;;1.07;;
76837;SDS011;65797;47.352;8.164;2023-03-23T15:49:22;3.37;;;1.53;;
76837;SDS011;65797;47.352;8.164;2023-03-23T15:51:50;2.33;;;1.80;;
76837;SDS011;65797;47.352;8.164;2023-03-23T15:54:16;1.90;;;1.40;;
76837;SDS011;65797;47.352;8.164;2023-03-23T15:56:42;1.87;;;1.77;;
76837;SDS011;65797;47.352;8.164;2023-03-23T15:59:09;3.83;;;2.30;;
76837;SDS011;65797;47.352;8.164;2023-03-23T16:01:35;4.40;;;2.43;;
76837;SDS011;65797;47.352;8.164;2023-03-23T17:59:05;4.90;;;2.10;;
76837;SDS011;65797;47.352;8.164;2023-03-23T18:01:32;2.20;;;1.43;;
76837;SDS011;65797;47.352;8.164;2023-03-23T18:03:58;1.70;;;1.60;;
76837;SDS011;65797;47.352;8.164;2023-03-23T18:06:23;4.17;;;1.73;;
76837;SDS011;65797;47.352;8.164;2023-03-23T18:08:49;2.17;;;1.90;;
76837;SDS011;65797;47.352;8.164;2023-03-23T18:11:15;1.70;;;1.60;;
76837;SDS011;65797;47.352;8.164;2023-03-23T18:13:41;2.60;;;1.83;;
76837;SDS011;65797;47.352;8.164;2023-03-23T18:16:07;2.33;;;1.70;;
76837;SDS011;65797;47.352;8.164;2023-03-23T18:18:33;1.70;;;1.60;;
76837;SDS011;65797;47.352;8.164;2023-03-23T18:21:03;3.33;;;1.43;;
76837;SDS011;65797;47.352;8.164;2023-03-23T18:23:32;1.83;;;1.73;;
76837;SDS011;65797;47.352;8.164;2023-03-23T18:26:08;1.77;;;1.67;;
76837;SDS011;65797;47.352;8.164;2023-03-23T18:28:35;1.80;;;1.70;;
76837;SDS011;65797;47.352;8.164;2023-03-23T18:31:02;2.60;;;2.40;;
76837;SDS011;65797;47.352;8.164;2023-03-23T18:33:33;3.27;;;2.10;;
76837;SDS011;65797;47.352;8.164;2023-03-23T18:36:06;2.63;;;2.10;;
76837;SDS011;65797;47.352;8.164;2023-03-23T18:38:32;2.03;;;1.50;;
76837;SDS011;65797;47.352;8.164;2023-03-23T18:40:58;3.20;;;1.90;;
76837;SDS011;65797;47.352;8.164;2023-03-23T18:43:24;8.83;;;2.27;;
76837;SDS011;65797;47.352;8.164;2023-03-23T18:45:54;5.40;;;2.10;;
76837;SDS011;65797;47.352;8.164;2023-03-23T18:48:21;4.13;;;2.83;;
76837;SDS011;65797;47.352;8.164;2023-03-23T18:50:48;3.43;;;1.90;;
76837;SDS011;65797;47.352;8.164;2023-03-23T18:53:14;2.40;;;2.10;;
76837;SDS011;65797;47.352;8.164;2023-03-23T18:55:41;7.23;;;1.70;;
76837;SDS011;65797;47.352;8.164;2023-03-23T18:58:09;2.50;;;1.77;;
76837;SDS011;65797;47.352;8.164;2023-03-23T19:00:36;1.83;;;1.73;;
76837;SDS011;65797;47.352;8.164;2023-03-23T19:03:02;2.80;;;2.00;;
76837;SDS011;65797;47.352;8.164;2023-03-23T19:05:30;3.10;;;2.20;;
76837;SDS011;65797;47.352;8.164;2023-03-23T19:07:56;2.40;;;2.30;;
76837;SDS011;65797;47.352;8.164;2023-03-23T19:10:22;2.60;;;2.27;;
76837;SDS011;65797;47.352;8.164;2023-03-23T19:12:49;2.43;;;2.00;;
76837;SDS011;65797;47.352;8.164;2023-03-23T19:15:18;3.50;;;1.97;;
76837;SDS011;65797;47.352;8.164;2023-03-23T19:17:44;4.03;;;1.93;;
76837;SDS011;65797;47.352;8.164;2023-03-23T19:20:10;2.50;;;1.93;;
76837;SDS011;65797;47.352;8.164;2023-03-23T19:22:37;3.53;;;2.40;;
76837;SDS011;65797;47.352;8.164;2023-03-23T19:25:04;2.63;;;2.00;;
76837;SDS011;65797;47.352;8.164;2023-03-23T19:27:32;2.13;;;1.97;;
76837;SDS011;65797;47.352;8.164;2023-03-23T19:29:58;2.23;;;2.10;;
76837;SDS011;65797;47.352;8.164;2023-03-23T19:32:23;2.20;;;2.00;;
76837;SDS011;65797;47.352;8.164;2023-03-23T19:34:49;2.50;;;1.80;;
76837;SDS011;65797;47.352;8.164;2023-03-23T19:37:15;3.50;;;1.73;;
76837;SDS011;65797;47.352;8.164;2023-03-23T19:39:41;2.60;;;1.90;;
76837;SDS011;65797;47.352;8.164;2023-03-23T19:42:07;2.57;;;1.87;;
76837;SDS011;65797;47.352;8.164;2023-03-23T19:44:33;3.30;;;2.20;;
76837;SDS011;65797;47.352;8.164;2023-03-23T19:46:59;2.10;;;2.00;;
76837;SDS011;65797;47.352;8.164;2023-03-23T19:49:25;2.70;;;2.00;;
76837;SDS011;65797;47.352;8.164;2023-03-23T19:51:51;2.70;;;2.50;;
76837;SDS011;65797;47.352;8.164;2023-03-23T19:54:17;3.33;;;1.97;;
76837;SDS011;65797;47.352;8.164;2023-03-23T19:56:43;6.47;;;2.50;;
76837;SDS011;65797;47.352;8.164;2023-03-23T19:59:11;2.50;;;2.10;;
76837;SDS011;65797;47.352;8.164;2023-03-23T20:01:39;3.17;;;2.33;;
76837;SDS011;65797;47.352;8.164;2023-03-23T20:04:06;1.97;;;1.73;;
76837;SDS011;65797;47.352;8.164;2023-03-23T20:06:33;5.40;;;1.73;;
76837;SDS011;65797;47.352;8.164;2023-03-23T20:08:59;4.03;;;2.57;;
76837;SDS011;65797;47.352;8.164;2023-03-23T20:11:25;3.90;;;2.27;;
76837;SDS011;65797;47.352;8.164;2023-03-23T20:13:51;2.63;;;2.37;;
76837;SDS011;65797;47.352;8.164;2023-03-23T20:16:17;11.57;;;3.10;;
76837;SDS011;65797;47.352;8.164;2023-03-23T20:18:43;3.03;;;2.70;;
76837;SDS011;65797;47.352;8.164;2023-03-23T20:21:11;3.37;;;3.07;;
76837;SDS011;65797;47.352;8.164;2023-03-23T20:23:41;3.80;;;2.60;;
76837;SDS011;65797;47.352;8.164;2023-03-23T20:26:10;3.90;;;3.20;;
76837;SDS011;65797;47.352;8.164;2023-03-23T20:28:43;3.03;;;2.73;;
76837;SDS011;65797;47.352;8.164;2023-03-23T20:31:16;3.97;;;2.77;;
76837;SDS011;65797;47.352;8.164;2023-03-23T20:33:44;4.03;;;2.90;;
76837;SDS011;65797;47.352;8.164;2023-03-23T20:36:12;3.53;;;3.07;;
76837;SDS011;65797;47.352;8.164;2023-03-23T20:38:43;3.70;;;2.70;;
76837;SDS011;65797;47.352;8.164;2023-03-23T20:41:10;3.20;;;2.90;;
76837;SDS011;65797;47.352;8.164;2023-03-23T20:43:40;4.10;;;2.90;;
76837;SDS011;65797;47.352;8.164;2023-03-23T20:46:08;2.97;;;2.47;;
76837;SDS011;65797;47.352;8.164;2023-03-23T20:48:36;5.23;;;2.60;;
76837;SDS011;65797;47.352;8.164;2023-03-23T20:51:04;3.00;;;2.80;;
76837;SDS011;65797;47.352;8.164;2023-03-23T20:53:32;3.57;;;2.43;;
76837;SDS011;65797;47.352;8.164;2023-03-23T20:56:00;3.13;;;2.90;;
76837;SDS011;65797;47.352;8.164;2023-03-23T20:58:29;3.57;;;2.90;;
76837;SDS011;65797;47.352;8.164;2023-03-23T21:00:56;5.43;;;2.83;;
76837;SDS011;65797;47.352;8.164;2023-03-23T21:03:27;3.43;;;3.13;;
76837;SDS011;65797;47.352;8.164;2023-03-23T21:05:55;4.27;;;2.90;;
76837;SDS011;65797;47.352;8.164;2023-03-23T21:08:21;4.20;;;3.67;;
76837;SDS011;65797;47.352;8.164;2023-03-23T21:10:47;3.43;;;3.00;;
76837;SDS011;65797;47.352;8.164;2023-03-23T21:13:14;3.60;;;3.30;;
76837;SDS011;65797;47.352;8.164;2023-03-23T21:15:41;6.50;;;3.53;;
76837;SDS011;65797;47.352;8.164;2023-03-23T21:18:07;4.40;;;3.00;;
76837;SDS011;65797;47.352;8.164;2023-03-23T21:20:34;2.97;;;2.73;;
76837;SDS011;65797;47.352;8.164;2023-03-23T21:22:59;3.10;;;2.47;;
76837;SDS011;65797;47.352;8.164;2023-03-23T21:25:26;4.37;;;3.07;;
76837;SDS011;65797;47.352;8.164;2023-03-23T21:27:52;3.47;;;2.53;;
76837;SDS011;65797;47.352;8.164;2023-03-23T21:30:19;3.13;;;2.83;;
76837;SDS011;65797;47.352;8.164;2023-03-23T21:32:46;3.27;;;2.97;;
76837;SDS011;65797;47.352;8.164;2023-03-23T21:35:12;3.10;;;2.80;;
76837;SDS011;65797;47.352;8.164;2023-03-23T21:37:38;5.97;;;3.10;;
76837;SDS011;65797;47.352;8.164;2023-03-23T21:40:05;4.10;;;3.57;;
76837;SDS011;65797;47.352;8.164;2023-03-23T21:42:37;5.27;;;3.17;;
76837;SDS011;65797;47.352;8.164;2023-03-23T21:45:10;3.50;;;3.20;;
76837;SDS011;65797;47.352;8.164;2023-03-23T21:47:37;5.23;;;3.03;;
76837;SDS011;65797;47.352;8.164;2023-03-23T21:50:06;3.70;;;2.73;;
76837;SDS011;65797;47.352;8.164;2023-03-23T21:52:33;4.00;;;3.60;;
76837;SDS011;65797;47.352;8.164;2023-03-23T21:55:00;7.60;;;3.30;;
76837;SDS011;65797;47.352;8.164;2023-03-23T21:57:27;4.77;;;2.93;;
76837;SDS011;65797;47.352;8.164;2023-03-23T21:59:54;4.03;;;3.03;;
76837;SDS011;65797;47.352;8.164;2023-03-23T22:02:20;3.40;;;3.10;;
76837;SDS011;65797;47.352;8.164;2023-03-23T22:04:46;3.70;;;3.00;;
76837;SDS011;65797;47.352;8.164;2023-03-23T22:07:12;6.07;;;3.53;;
76837;SDS011;65797;47.352;8.164;2023-03-23T22:09:38;4.00;;;3.20;;
76837;SDS011;65797;47.352;8.164;2023-03-23T22:12:09;8.13;;;3.63;;
76837;SDS011;65797;47.352;8.164;2023-03-23T22:14:35;4.63;;;3.60;;
76837;SDS011;65797;47.352;8.164;2023-03-23T22:17:01;3.13;;;2.90;;